sensor_id;sensor_type;location;lat;lon;timestamp;temperature;humidity
11666;DHT22;5889;51.350;6.708;2023-04-06T00:00:24;4.30;93.90
11666;DHT22;5889;51.350;6.708;2023-04-06T00:02:51;4.30;94.00
11666;DHT22;5889;51.350;6.708;2023-04-06T00:05:19;4.20;94.10
11666;DHT22;5889;51.350;6.708;2023-04-06T00:07:46;4.20;94.20
11666;DHT22;5889;51.350;6.708;2023-04-06T00:10:15;4.10;94.20
11666;DHT22;5889;51.350;6.708;2023-04-06T00:12:42;4.10;94.40
11666;DHT22;5889;51.350;6.708;2023-04-06T00:15:10;4.00;94.50
11666;DHT22;5889;51.350;6.708;2023-04-06T00:17:37;4.00;94.60
11666;DHT22;5889;51.350;6.708;2023-04-06T00:20:04;4.00;94.80
11666;DHT22;5889;51.350;6.708;2023-04-06T00:22:32;4.00;95.00
11666;DHT22;5889;51.350;6.708;2023-04-06T00:24:59;3.90;95.10
11666;DHT22;5889;51.350;6.708;2023-04-06T00:27:27;3.90;95.30
11666;DHT22;5889;51.350;6.708;2023-04-06T00:29:54;3.80;95.50
11666;DHT22;5889;51.350;6.708;2023-04-06T00:32:21;3.80;95.70
11666;DHT22;5889;51.350;6.708;2023-04-06T00:34:48;3.80;95.90
11666;DHT22;5889;51.350;6.708;2023-04-06T00:37:15;3.70;96.10
11666;DHT22;5889;51.350;6.708;2023-04-06T00:39:42;3.70;96.30
11666;DHT22;5889;51.350;6.708;2023-04-06T00:42:11;3.70;96.50
11666;DHT22;5889;51.350;6.708;2023-04-06T00:44:41;3.70;96.60
11666;DHT22;5889;51.350;6.708;2023-04-06T00:47:08;3.60;96.70
11666;DHT22;5889;51.350;6.708;2023-04-06T00:49:35;3.60;96.80
11666;DHT22;5889;51.350;6.708;2023-04-06T00:52:02;3.60;96.90
11666;DHT22;5889;51.350;6.708;2023-04-06T00:54:30;3.60;97.10
11666;DHT22;5889;51.350;6.708;2023-04-06T00:56:57;3.60;97.20
11666;DHT22;5889;51.350;6.708;2023-04-06T00:59:24;3.50;97.20
11666;DHT22;5889;51.350;6.708;2023-04-06T01:01:52;3.50;97.40
11666;DHT22;5889;51.350;6.708;2023-04-06T01:04:19;3.50;97.50
11666;DHT22;5889;51.350;6.708;2023-04-06T01:06:48;3.50;97.60
11666;DHT22;5889;51.350;6.708;2023-04-06T01:09:15;3.50;97.70
11666;DHT22;5889;51.350;6.708;2023-04-06T01:11:42;3.50;97.80
11666;DHT22;5889;51.350;6.708;2023-04-06T01:14:09;3.50;97.80
11666;DHT22;5889;51.350;6.708;2023-04-06T01:16:37;3.50;97.90
11666;DHT22;5889;51.350;6.708;2023-04-06T01:19:08;3.50;98.10
11666;DHT22;5889;51.350;6.708;2023-04-06T01:21:36;3.50;98.30
11666;DHT22;5889;51.350;6.708;2023-04-06T01:24:05;3.50;98.30
11666;DHT22;5889;51.350;6.708;2023-04-06T01:26:33;3.50;98.40
11666;DHT22;5889;51.350;6.708;2023-04-06T01:29:00;3.40;98.50
11666;DHT22;5889;51.350;6.708;2023-04-06T01:31:27;3.40;98.50
11666;DHT22;5889;51.350;6.708;2023-04-06T01:33:54;3.40;98.60
11666;DHT22;5889;51.350;6.708;2023-04-06T01:36:22;3.40;98.70
11666;DHT22;5889;51.350;6.708;2023-04-06T01:38:49;3.40;98.80
11666;DHT22;5889;51.350;6.708;2023-04-06T01:41:17;3.40;98.80
11666;DHT22;5889;51.350;6.708;2023-04-06T01:43:44;3.40;98.80
11666;DHT22;5889;51.350;6.708;2023-04-06T01:46:11;3.40;98.90
11666;DHT22;5889;51.350;6.708;2023-04-06T01:48:38;3.40;98.90
11666;DHT22;5889;51.350;6.708;2023-04-06T01:51:05;3.30;98.90
11666;DHT22;5889;51.350;6.708;2023-04-06T01:53:32;3.40;99.00
11666;DHT22;5889;51.350;6.708;2023-04-06T01:55:59;3.30;99.00
11666;DHT22;5889;51.350;6.708;2023-04-06T01:58:27;3.30;99.00
11666;DHT22;5889;51.350;6.708;2023-04-06T02:00:54;3.30;99.10
11666;DHT22;5889;51.350;6.708;2023-04-06T02:03:21;3.30;99.20
11666;DHT22;5889;51.350;6.708;2023-04-06T02:05:48;3.30;99.30
11666;DHT22;5889;51.350;6.708;2023-04-06T02:08:15;3.30;99.30
11666;DHT22;5889;51.350;6.708;2023-04-06T02:10:42;3.30;99.40
11666;DHT22;5889;51.350;6.708;2023-04-06T02:13:09;3.20;99.40
11666;DHT22;5889;51.350;6.708;2023-04-06T02:15:37;3.20;99.40
11666;DHT22;5889;51.350;6.708;2023-04-06T02:18:04;3.20;99.50
11666;DHT22;5889;51.350;6.708;2023-04-06T02:20:31;3.20;99.50
11666;DHT22;5889;51.350;6.708;2023-04-06T02:22:59;3.10;99.60
11666;DHT22;5889;51.350;6.708;2023-04-06T02:25:26;3.10;99.90
11666;DHT22;5889;51.350;6.708;2023-04-06T02:27:53;3.10;99.80
11666;DHT22;5889;51.350;6.708;2023-04-06T02:30:20;3.10;99.90
11666;DHT22;5889;51.350;6.708;2023-04-06T02:32:48;3.10;99.90
11666;DHT22;5889;51.350;6.708;2023-04-06T02:35:15;3.10;99.90
11666;DHT22;5889;51.350;6.708;2023-04-06T02:37:42;3.10;99.90
11666;DHT22;5889;51.350;6.708;2023-04-06T02:40:10;3.00;99.90
11666;DHT22;5889;51.350;6.708;2023-04-06T02:42:37;3.00;99.90
11666;DHT22;5889;51.350;6.708;2023-04-06T02:45:04;3.00;99.90
11666;DHT22;5889;51.350;6.708;2023-04-06T02:47:32;3.00;99.90
11666;DHT22;5889;51.350;6.708;2023-04-06T02:50:00;3.00;99.90
11666;DHT22;5889;51.350;6.708;2023-04-06T02:52:27;3.00;99.90
11666;DHT22;5889;51.350;6.708;2023-04-06T02:54:54;3.00;99.90
11666;DHT22;5889;51.350;6.708;2023-04-06T02:57:21;3.00;99.90
11666;DHT22;5889;51.350;6.708;2023-04-06T02:59:48;3.00;99.90
11666;DHT22;5889;51.350;6.708;2023-04-06T03:02:14;3.00;99.90
11666;DHT22;5889;51.350;6.708;2023-04-06T03:04:42;3.00;99.90
11666;DHT22;5889;51.350;6.708;2023-04-06T03:07:10;3.00;99.90
11666;DHT22;5889;51.350;6.708;2023-04-06T03:09:38;3.00;99.90
11666;DHT22;5889;51.350;6.708;2023-04-06T03:12:05;3.00;99.90
11666;DHT22;5889;51.350;6.708;2023-04-06T03:14:32;3.00;99.90
11666;DHT22;5889;51.350;6.708;2023-04-06T03:16:59;3.00;99.90
11666;DHT22;5889;51.350;6.708;2023-04-06T03:19:26;3.00;99.90
11666;DHT22;5889;51.350;6.708;2023-04-06T03:21:53;3.00;99.90
11666;DHT22;5889;51.350;6.708;2023-04-06T03:24:21;2.90;99.90
11666;DHT22;5889;51.350;6.708;2023-04-06T03:26:48;2.90;99.90
11666;DHT22;5889;51.350;6.708;2023-04-06T03:29:16;2.90;99.90
11666;DHT22;5889;51.350;6.708;2023-04-06T03:31:43;2.90;99.90
11666;DHT22;5889;51.350;6.708;2023-04-06T03:34:10;2.90;99.90
11666;DHT22;5889;51.350;6.708;2023-04-06T03:36:37;2.90;99.90
11666;DHT22;5889;51.350;6.708;2023-04-06T03:39:04;2.90;99.90
11666;DHT22;5889;51.350;6.708;2023-04-06T03:41:32;2.90;99.90
11666;DHT22;5889;51.350;6.708;2023-04-06T03:43:59;2.90;99.90
11666;DHT22;5889;51.350;6.708;2023-04-06T03:46:26;2.80;99.90
11666;DHT22;5889;51.350;6.708;2023-04-06T03:48:53;2.80;99.90
11666;DHT22;5889;51.350;6.708;2023-04-06T03:51:20;2.80;99.90
11666;DHT22;5889;51.350;6.708;2023-04-06T03:53:47;2.80;99.90
11666;DHT22;5889;51.350;6.708;2023-04-06T03:56:13;2.80;99.90
11666;DHT22;5889;51.350;6.708;2023-04-06T03:58:42;2.80;99.90
11666;DHT22;5889;51.350;6.708;2023-04-06T04:01:10;2.80;99.90
11666;DHT22;5889;51.350;6.708;2023-04-06T04:03:37;2.80;99.90
11666;DHT22;5889;51.350;6.708;2023-04-06T04:06:04;2.80;99.90
11666;DHT22;5889;51.350;6.708;2023-04-06T04:08:31;2.80;99.90
11666;DHT22;5889;51.350;6.708;2023-04-06T04:10:58;2.80;99.90
11666;DHT22;5889;51.350;6.708;2023-04-06T04:13:25;2.80;99.90
11666;DHT22;5889;51.350;6.708;2023-04-06T04:15:53;2.80;99.90
11666;DHT22;5889;51.350;6.708;2023-04-06T04:18:20;2.70;99.90
11666;DHT22;5889;51.350;6.708;2023-04-06T04:20:47;2.80;99.90
11666;DHT22;5889;51.350;6.708;2023-04-06T04:23:14;2.70;99.90
11666;DHT22;5889;51.350;6.708;2023-04-06T04:25:43;2.70;99.90
11666;DHT22;5889;51.350;6.708;2023-04-06T04:28:10;2.70;99.90
11666;DHT22;5889;51.350;6.708;2023-04-06T04:30:37;2.60;99.90
11666;DHT22;5889;51.350;6.708;2023-04-06T04:33:05;2.60;99.90
11666;DHT22;5889;51.350;6.708;2023-04-06T04:35:32;2.60;99.90
11666;DHT22;5889;51.350;6.708;2023-04-06T04:37:59;2.60;99.90
11666;DHT22;5889;51.350;6.708;2023-04-06T04:40:25;2.60;99.90
11666;DHT22;5889;51.350;6.708;2023-04-06T04:42:52;2.60;99.90
11666;DHT22;5889;51.350;6.708;2023-04-06T04:45:19;2.60;99.90
11666;DHT22;5889;51.350;6.708;2023-04-06T04:47:46;2.60;99.90
11666;DHT22;5889;51.350;6.708;2023-04-06T04:50:14;2.60;99.90
11666;DHT22;5889;51.350;6.708;2023-04-06T04:52:41;2.60;99.90
11666;DHT22;5889;51.350;6.708;2023-04-06T04:55:08;2.60;99.90
11666;DHT22;5889;51.350;6.708;2023-04-06T04:57:35;2.60;99.90
11666;DHT22;5889;51.350;6.708;2023-04-06T05:00:03;2.70;99.90
11666;DHT22;5889;51.350;6.708;2023-04-06T05:02:30;2.60;99.90
11666;DHT22;5889;51.350;6.708;2023-04-06T05:04:57;2.60;99.90
11666;DHT22;5889;51.350;6.708;2023-04-06T05:07:25;2.70;99.90
11666;DHT22;5889;51.350;6.708;2023-04-06T05:09:52;2.70;99.90
11666;DHT22;5889;51.350;6.708;2023-04-06T05:12:19;2.70;99.90
11666;DHT22;5889;51.350;6.708;2023-04-06T05:14:46;2.70;99.90
11666;DHT22;5889;51.350;6.708;2023-04-06T05:17:12;2.70;99.90
11666;DHT22;5889;51.350;6.708;2023-04-06T05:19:39;2.80;99.90
11666;DHT22;5889;51.350;6.708;2023-04-06T05:22:06;2.80;99.90
11666;DHT22;5889;51.350;6.708;2023-04-06T05:24:34;2.80;99.90
11666;DHT22;5889;51.350;6.708;2023-04-06T05:27:02;2.80;99.90
11666;DHT22;5889;51.350;6.708;2023-04-06T05:29:29;2.90;99.90
11666;DHT22;5889;51.350;6.708;2023-04-06T05:31:55;2.90;99.90
11666;DHT22;5889;51.350;6.708;2023-04-06T05:34:22;3.00;99.90
11666;DHT22;5889;51.350;6.708;2023-04-06T05:36:49;3.10;99.90
11666;DHT22;5889;51.350;6.708;2023-04-06T05:39:16;3.10;99.90
11666;DHT22;5889;51.350;6.708;2023-04-06T05:41:44;3.20;99.90
11666;DHT22;5889;51.350;6.708;2023-04-06T05:44:11;3.20;99.90
11666;DHT22;5889;51.350;6.708;2023-04-06T05:46:37;3.30;99.90
11666;DHT22;5889;51.350;6.708;2023-04-06T05:49:04;3.30;99.90
11666;DHT22;5889;51.350;6.708;2023-04-06T05:51:31;3.30;99.90
11666;DHT22;5889;51.350;6.708;2023-04-06T05:53:58;3.40;99.90
11666;DHT22;5889;51.350;6.708;2023-04-06T05:56:25;3.40;99.90
11666;DHT22;5889;51.350;6.708;2023-04-06T05:58:53;3.40;99.90
11666;DHT22;5889;51.350;6.708;2023-04-06T06:01:20;3.50;99.90
11666;DHT22;5889;51.350;6.708;2023-04-06T06:03:47;3.50;99.90
11666;DHT22;5889;51.350;6.708;2023-04-06T06:06:14;3.50;99.90
11666;DHT22;5889;51.350;6.708;2023-04-06T06:08:41;3.60;99.90
11666;DHT22;5889;51.350;6.708;2023-04-06T06:11:08;3.70;99.90
11666;DHT22;5889;51.350;6.708;2023-04-06T06:13:37;3.80;99.90
11666;DHT22;5889;51.350;6.708;2023-04-06T06:16:05;3.80;99.90
11666;DHT22;5889;51.350;6.708;2023-04-06T06:18:32;3.90;99.90
11666;DHT22;5889;51.350;6.708;2023-04-06T06:20:59;3.90;99.90
11666;DHT22;5889;51.350;6.708;2023-04-06T06:23:42;4.00;99.90
11666;DHT22;5889;51.350;6.708;2023-04-06T06:26:10;4.10;99.90
11666;DHT22;5889;51.350;6.708;2023-04-06T06:28:37;4.10;99.90
11666;DHT22;5889;51.350;6.708;2023-04-06T06:31:06;4.20;99.90
11666;DHT22;5889;51.350;6.708;2023-04-06T06:33:32;4.40;99.90
11666;DHT22;5889;51.350;6.708;2023-04-06T06:36:00;4.40;99.90
11666;DHT22;5889;51.350;6.708;2023-04-06T06:38:27;4.50;99.90
11666;DHT22;5889;51.350;6.708;2023-04-06T06:40:54;4.70;99.90
11666;DHT22;5889;51.350;6.708;2023-04-06T06:43:22;4.70;99.90
11666;DHT22;5889;51.350;6.708;2023-04-06T06:45:49;4.80;99.90
11666;DHT22;5889;51.350;6.708;2023-04-06T06:48:18;4.90;99.90
11666;DHT22;5889;51.350;6.708;2023-04-06T06:50:47;5.10;99.90
11666;DHT22;5889;51.350;6.708;2023-04-06T06:53:17;5.20;99.90
11666;DHT22;5889;51.350;6.708;2023-04-06T06:55:44;5.40;99.90
11666;DHT22;5889;51.350;6.708;2023-04-06T06:58:11;5.50;99.90
11666;DHT22;5889;51.350;6.708;2023-04-06T07:00:38;5.60;99.90
11666;DHT22;5889;51.350;6.708;2023-04-06T07:03:05;5.80;99.90
11666;DHT22;5889;51.350;6.708;2023-04-06T07:05:33;5.90;99.90
11666;DHT22;5889;51.350;6.708;2023-04-06T07:08:01;6.10;99.90
11666;DHT22;5889;51.350;6.708;2023-04-06T07:10:27;6.20;99.90
11666;DHT22;5889;51.350;6.708;2023-04-06T07:12:55;6.30;99.90
11666;DHT22;5889;51.350;6.708;2023-04-06T07:15:22;6.50;99.80
11666;DHT22;5889;51.350;6.708;2023-04-06T07:17:49;6.60;98.90
11666;DHT22;5889;51.350;6.708;2023-04-06T07:20:16;6.80;98.50
11666;DHT22;5889;51.350;6.708;2023-04-06T07:22:44;7.00;98.00
11666;DHT22;5889;51.350;6.708;2023-04-06T07:25:11;7.10;97.30
11666;DHT22;5889;51.350;6.708;2023-04-06T07:27:38;7.20;97.00
11666;DHT22;5889;51.350;6.708;2023-04-06T07:30:07;7.40;97.00
11666;DHT22;5889;51.350;6.708;2023-04-06T07:32:34;7.50;97.10
11666;DHT22;5889;51.350;6.708;2023-04-06T07:35:01;7.60;96.90
11666;DHT22;5889;51.350;6.708;2023-04-06T07:37:28;7.70;96.60
11666;DHT22;5889;51.350;6.708;2023-04-06T07:39:56;7.90;96.60
11666;DHT22;5889;51.350;6.708;2023-04-06T07:42:23;8.00;95.90
11666;DHT22;5889;51.350;6.708;2023-04-06T07:44:50;8.20;95.90
11666;DHT22;5889;51.350;6.708;2023-04-06T07:47:17;8.30;95.40
11666;DHT22;5889;51.350;6.708;2023-04-06T07:49:44;8.50;95.20
11666;DHT22;5889;51.350;6.708;2023-04-06T07:52:14;8.60;94.30
11666;DHT22;5889;51.350;6.708;2023-04-06T07:54:41;8.70;93.60
11666;DHT22;5889;51.350;6.708;2023-04-06T07:57:09;8.80;93.30
11666;DHT22;5889;51.350;6.708;2023-04-06T07:59:36;8.80;92.70
11666;DHT22;5889;51.350;6.708;2023-04-06T08:02:03;8.80;92.50
11666;DHT22;5889;51.350;6.708;2023-04-06T08:04:30;9.00;92.90
11666;DHT22;5889;51.350;6.708;2023-04-06T08:06:57;9.10;92.80
11666;DHT22;5889;51.350;6.708;2023-04-06T08:09:25;9.20;92.70
11666;DHT22;5889;51.350;6.708;2023-04-06T08:11:52;9.30;92.70
11666;DHT22;5889;51.350;6.708;2023-04-06T08:14:20;9.40;92.50
11666;DHT22;5889;51.350;6.708;2023-04-06T08:16:47;9.50;92.10
11666;DHT22;5889;51.350;6.708;2023-04-06T08:19:14;9.70;91.90
11666;DHT22;5889;51.350;6.708;2023-04-06T08:21:43;9.80;91.80
11666;DHT22;5889;51.350;6.708;2023-04-06T08:24:10;9.90;91.70
11666;DHT22;5889;51.350;6.708;2023-04-06T08:26:37;10.00;91.70
11666;DHT22;5889;51.350;6.708;2023-04-06T08:29:04;10.10;91.50
11666;DHT22;5889;51.350;6.708;2023-04-06T08:31:34;10.30;91.30
11666;DHT22;5889;51.350;6.708;2023-04-06T08:34:05;10.40;91.10
11666;DHT22;5889;51.350;6.708;2023-04-06T08:36:47;10.50;90.80
11666;DHT22;5889;51.350;6.708;2023-04-06T08:39:37;10.70;90.50
11666;DHT22;5889;51.350;6.708;2023-04-06T08:42:28;10.80;90.20
11666;DHT22;5889;51.350;6.708;2023-04-06T08:45:17;11.00;89.90
11666;DHT22;5889;51.350;6.708;2023-04-06T08:48:03;11.20;89.30
11666;DHT22;5889;51.350;6.708;2023-04-06T08:50:50;11.30;87.80
11666;DHT22;5889;51.350;6.708;2023-04-06T08:53:42;11.50;87.30
11666;DHT22;5889;51.350;6.708;2023-04-06T08:57:01;11.60;87.50
11666;DHT22;5889;51.350;6.708;2023-04-06T08:59:58;11.90;86.80
11666;DHT22;5889;51.350;6.708;2023-04-06T09:06:34;12.20;85.80
11666;DHT22;5889;51.350;6.708;2023-04-06T09:29:33;12.90;82.50
11666;DHT22;5889;51.350;6.708;2023-04-06T09:32:48;12.90;81.80
11666;DHT22;5889;51.350;6.708;2023-04-06T09:39:35;13.10;81.10
11666;DHT22;5889;51.350;6.708;2023-04-06T09:56:25;13.90;80.90
11666;DHT22;5889;51.350;6.708;2023-04-06T09:58:57;14.20;79.40
11666;DHT22;5889;51.350;6.708;2023-04-06T10:07:54;14.50;76.80
11666;DHT22;5889;51.350;6.708;2023-04-06T10:10:24;14.50;78.10
11666;DHT22;5889;51.350;6.708;2023-04-06T10:12:53;14.50;78.30
11666;DHT22;5889;51.350;6.708;2023-04-06T10:15:31;14.50;78.50
11666;DHT22;5889;51.350;6.708;2023-04-06T10:21:11;14.40;78.40
11666;DHT22;5889;51.350;6.708;2023-04-06T10:33:32;14.10;80.50
11666;DHT22;5889;51.350;6.708;2023-04-06T10:36:11;14.00;80.40
11666;DHT22;5889;51.350;6.708;2023-04-06T10:42:06;14.00;80.30
11666;DHT22;5889;51.350;6.708;2023-04-06T10:44:42;14.00;80.30
11666;DHT22;5889;51.350;6.708;2023-04-06T10:47:16;14.10;80.50
11666;DHT22;5889;51.350;6.708;2023-04-06T10:49:44;14.20;80.80
11666;DHT22;5889;51.350;6.708;2023-04-06T10:52:11;14.50;80.30
11666;DHT22;5889;51.350;6.708;2023-04-06T10:54:42;14.60;79.40
11666;DHT22;5889;51.350;6.708;2023-04-06T10:57:10;14.70;79.50
11666;DHT22;5889;51.350;6.708;2023-04-06T10:59:36;15.00;79.90
11666;DHT22;5889;51.350;6.708;2023-04-06T11:02:03;15.10;79.40
11666;DHT22;5889;51.350;6.708;2023-04-06T11:04:30;15.00;79.40
11666;DHT22;5889;51.350;6.708;2023-04-06T11:11:03;15.00;78.80
11666;DHT22;5889;51.350;6.708;2023-04-06T11:14:17;14.70;78.70
11666;DHT22;5889;51.350;6.708;2023-04-06T11:21:12;14.40;80.60
11666;DHT22;5889;51.350;6.708;2023-04-06T11:24:26;14.30;81.80
11666;DHT22;5889;51.350;6.708;2023-04-06T11:34:32;14.40;84.20
11666;DHT22;5889;51.350;6.708;2023-04-06T11:40:23;14.60;83.80
11666;DHT22;5889;51.350;6.708;2023-04-06T11:46:56;14.60;82.20
11666;DHT22;5889;51.350;6.708;2023-04-06T12:16:53;14.70;83.40
11666;DHT22;5889;51.350;6.708;2023-04-06T12:19:20;14.70;84.00
11666;DHT22;5889;51.350;6.708;2023-04-06T12:21:51;14.70;84.40
11666;DHT22;5889;51.350;6.708;2023-04-06T12:24:17;14.80;84.70
11666;DHT22;5889;51.350;6.708;2023-04-06T12:26:44;14.80;84.10
11666;DHT22;5889;51.350;6.708;2023-04-06T12:29:12;14.80;84.50
11666;DHT22;5889;51.350;6.708;2023-04-06T12:31:50;14.80;84.30
11666;DHT22;5889;51.350;6.708;2023-04-06T14:58:19;11.80;99.90
11666;DHT22;5889;51.350;6.708;2023-04-06T15:01:33;11.70;99.90
11666;DHT22;5889;51.350;6.708;2023-04-06T15:04:44;11.60;99.90
11666;DHT22;5889;51.350;6.708;2023-04-06T15:07:49;11.50;99.90
11666;DHT22;5889;51.350;6.708;2023-04-06T15:10:28;11.40;99.90
11666;DHT22;5889;51.350;6.708;2023-04-06T15:13:03;11.20;99.90
11666;DHT22;5889;51.350;6.708;2023-04-06T15:15:42;11.10;99.90
11666;DHT22;5889;51.350;6.708;2023-04-06T15:18:20;11.00;99.90
11666;DHT22;5889;51.350;6.708;2023-04-06T15:21:05;10.90;99.90
11666;DHT22;5889;51.350;6.708;2023-04-06T15:23:51;10.90;99.90
11666;DHT22;5889;51.350;6.708;2023-04-06T15:26:39;10.90;99.90
11666;DHT22;5889;51.350;6.708;2023-04-06T15:29:24;10.80;99.90
11666;DHT22;5889;51.350;6.708;2023-04-06T15:32:31;10.80;99.90
11666;DHT22;5889;51.350;6.708;2023-04-06T15:35:21;10.80;99.90
11666;DHT22;5889;51.350;6.708;2023-04-06T15:38:31;10.80;99.90
11666;DHT22;5889;51.350;6.708;2023-04-06T15:41:28;10.80;99.90
11666;DHT22;5889;51.350;6.708;2023-04-06T15:44:20;10.70;99.90
11666;DHT22;5889;51.350;6.708;2023-04-06T15:47:08;10.60;99.90
11666;DHT22;5889;51.350;6.708;2023-04-06T15:53:03;10.60;99.90
11666;DHT22;5889;51.350;6.708;2023-04-06T15:55:56;10.50;99.90
11666;DHT22;5889;51.350;6.708;2023-04-06T16:01:38;10.40;99.90
11666;DHT22;5889;51.350;6.708;2023-04-06T16:04:32;10.40;99.90
11666;DHT22;5889;51.350;6.708;2023-04-06T16:07:47;10.40;99.90
11666;DHT22;5889;51.350;6.708;2023-04-06T16:10:14;10.30;99.90
11666;DHT22;5889;51.350;6.708;2023-04-06T16:12:41;10.30;99.90
11666;DHT22;5889;51.350;6.708;2023-04-06T16:15:08;10.30;99.90
11666;DHT22;5889;51.350;6.708;2023-04-06T16:17:36;10.20;99.90
11666;DHT22;5889;51.350;6.708;2023-04-06T16:20:03;10.20;99.90
11666;DHT22;5889;51.350;6.708;2023-04-06T16:22:30;10.10;99.90
11666;DHT22;5889;51.350;6.708;2023-04-06T16:24:59;10.10;99.90
11666;DHT22;5889;51.350;6.708;2023-04-06T16:27:26;10.10;99.90
11666;DHT22;5889;51.350;6.708;2023-04-06T16:29:53;10.00;99.90
11666;DHT22;5889;51.350;6.708;2023-04-06T16:32:20;9.90;99.90
11666;DHT22;5889;51.350;6.708;2023-04-06T16:34:47;9.90;99.90
11666;DHT22;5889;51.350;6.708;2023-04-06T16:37:14;9.90;99.90
11666;DHT22;5889;51.350;6.708;2023-04-06T16:39:41;9.90;99.90
11666;DHT22;5889;51.350;6.708;2023-04-06T16:42:10;9.90;99.90
11666;DHT22;5889;51.350;6.708;2023-04-06T16:44:36;9.90;99.90
11666;DHT22;5889;51.350;6.708;2023-04-06T16:47:03;9.80;99.90
11666;DHT22;5889;51.350;6.708;2023-04-06T16:49:31;9.80;99.90
11666;DHT22;5889;51.350;6.708;2023-04-06T16:51:58;9.80;99.90
11666;DHT22;5889;51.350;6.708;2023-04-06T16:54:28;9.80;99.90
11666;DHT22;5889;51.350;6.708;2023-04-06T16:56:55;9.80;99.90
11666;DHT22;5889;51.350;6.708;2023-04-06T16:59:23;9.70;99.90
11666;DHT22;5889;51.350;6.708;2023-04-06T17:01:50;9.70;99.90
11666;DHT22;5889;51.350;6.708;2023-04-06T17:04:17;9.70;99.90
11666;DHT22;5889;51.350;6.708;2023-04-06T17:06:44;9.70;99.90
11666;DHT22;5889;51.350;6.708;2023-04-06T17:09:11;9.60;99.90
11666;DHT22;5889;51.350;6.708;2023-04-06T17:11:38;9.60;99.90
11666;DHT22;5889;51.350;6.708;2023-04-06T17:14:07;9.50;99.90
11666;DHT22;5889;51.350;6.708;2023-04-06T17:16:36;9.50;99.90
11666;DHT22;5889;51.350;6.708;2023-04-06T17:19:03;9.50;99.90
11666;DHT22;5889;51.350;6.708;2023-04-06T17:21:30;9.50;99.90
11666;DHT22;5889;51.350;6.708;2023-04-06T17:23:57;9.50;99.90
11666;DHT22;5889;51.350;6.708;2023-04-06T17:26:24;9.40;99.90
11666;DHT22;5889;51.350;6.708;2023-04-06T17:28:51;9.40;99.90
11666;DHT22;5889;51.350;6.708;2023-04-06T17:31:18;9.40;99.90
11666;DHT22;5889;51.350;6.708;2023-04-06T17:33:46;9.30;99.90
11666;DHT22;5889;51.350;6.708;2023-04-06T17:36:14;9.30;99.90
11666;DHT22;5889;51.350;6.708;2023-04-06T17:38:41;9.30;99.90
11666;DHT22;5889;51.350;6.708;2023-04-06T17:41:11;9.30;99.90
11666;DHT22;5889;51.350;6.708;2023-04-06T17:43:38;9.30;99.90
11666;DHT22;5889;51.350;6.708;2023-04-06T17:46:05;9.30;99.90
11666;DHT22;5889;51.350;6.708;2023-04-06T17:48:32;9.30;99.90
11666;DHT22;5889;51.350;6.708;2023-04-06T17:51:01;9.30;99.90
11666;DHT22;5889;51.350;6.708;2023-04-06T17:53:28;9.30;99.90
11666;DHT22;5889;51.350;6.708;2023-04-06T17:56:00;9.20;99.90
11666;DHT22;5889;51.350;6.708;2023-04-06T17:58:27;9.20;99.90
11666;DHT22;5889;51.350;6.708;2023-04-06T18:00:54;9.20;99.90
11666;DHT22;5889;51.350;6.708;2023-04-06T18:03:21;9.10;99.90
11666;DHT22;5889;51.350;6.708;2023-04-06T18:05:48;9.10;99.90
11666;DHT22;5889;51.350;6.708;2023-04-06T18:08:17;9.10;99.90
11666;DHT22;5889;51.350;6.708;2023-04-06T18:10:44;9.10;99.90
11666;DHT22;5889;51.350;6.708;2023-04-06T18:13:12;9.10;99.90
11666;DHT22;5889;51.350;6.708;2023-04-06T18:15:40;9.10;99.90
11666;DHT22;5889;51.350;6.708;2023-04-06T18:18:07;9.10;99.90
11666;DHT22;5889;51.350;6.708;2023-04-06T18:20:38;9.10;99.90
11666;DHT22;5889;51.350;6.708;2023-04-06T18:23:06;9.10;99.90
11666;DHT22;5889;51.350;6.708;2023-04-06T18:25:38;9.00;99.90
11666;DHT22;5889;51.350;6.708;2023-04-06T18:28:05;9.00;99.90
11666;DHT22;5889;51.350;6.708;2023-04-06T18:30:32;9.00;99.90
11666;DHT22;5889;51.350;6.708;2023-04-06T18:33:00;9.00;99.90
11666;DHT22;5889;51.350;6.708;2023-04-06T18:35:26;8.90;99.90
11666;DHT22;5889;51.350;6.708;2023-04-06T18:37:53;8.90;99.90
11666;DHT22;5889;51.350;6.708;2023-04-06T18:40:31;8.90;99.90
11666;DHT22;5889;51.350;6.708;2023-04-06T18:43:00;8.90;99.90
11666;DHT22;5889;51.350;6.708;2023-04-06T18:45:28;8.90;99.90
11666;DHT22;5889;51.350;6.708;2023-04-06T18:47:57;8.80;99.90
11666;DHT22;5889;51.350;6.708;2023-04-06T18:50:25;8.80;99.90
11666;DHT22;5889;51.350;6.708;2023-04-06T18:52:52;8.80;99.90
11666;DHT22;5889;51.350;6.708;2023-04-06T18:55:19;8.80;99.90
11666;DHT22;5889;51.350;6.708;2023-04-06T18:57:46;8.80;99.90
11666;DHT22;5889;51.350;6.708;2023-04-06T19:00:15;8.80;99.90
11666;DHT22;5889;51.350;6.708;2023-04-06T19:02:42;8.80;99.90
11666;DHT22;5889;51.350;6.708;2023-04-06T19:05:10;8.70;99.90
11666;DHT22;5889;51.350;6.708;2023-04-06T19:07:37;8.70;99.90
11666;DHT22;5889;51.350;6.708;2023-04-06T19:10:05;8.70;99.90
11666;DHT22;5889;51.350;6.708;2023-04-06T19:12:33;8.70;99.90
11666;DHT22;5889;51.350;6.708;2023-04-06T19:15:03;8.70;99.90
11666;DHT22;5889;51.350;6.708;2023-04-06T19:17:31;8.70;99.90
11666;DHT22;5889;51.350;6.708;2023-04-06T19:19:58;8.70;99.90
11666;DHT22;5889;51.350;6.708;2023-04-06T19:22:25;8.70;99.90
11666;DHT22;5889;51.350;6.708;2023-04-06T19:24:52;8.70;99.90
11666;DHT22;5889;51.350;6.708;2023-04-06T19:27:19;8.70;99.90
11666;DHT22;5889;51.350;6.708;2023-04-06T19:29:46;8.70;99.90
11666;DHT22;5889;51.350;6.708;2023-04-06T19:32:13;8.70;99.90
11666;DHT22;5889;51.350;6.708;2023-04-06T19:34:41;8.70;99.90
11666;DHT22;5889;51.350;6.708;2023-04-06T19:37:08;8.70;99.90
11666;DHT22;5889;51.350;6.708;2023-04-06T19:39:35;8.60;99.90
11666;DHT22;5889;51.350;6.708;2023-04-06T19:42:03;8.60;99.90
11666;DHT22;5889;51.350;6.708;2023-04-06T19:44:30;8.60;99.90
11666;DHT22;5889;51.350;6.708;2023-04-06T19:46:57;8.60;99.90
11666;DHT22;5889;51.350;6.708;2023-04-06T19:49:24;8.60;99.90
11666;DHT22;5889;51.350;6.708;2023-04-06T19:51:54;8.60;99.90
11666;DHT22;5889;51.350;6.708;2023-04-06T19:54:21;8.60;99.90
11666;DHT22;5889;51.350;6.708;2023-04-06T19:56:49;8.60;99.90
11666;DHT22;5889;51.350;6.708;2023-04-06T19:59:15;8.60;99.90
11666;DHT22;5889;51.350;6.708;2023-04-06T20:01:42;8.60;99.90
11666;DHT22;5889;51.350;6.708;2023-04-06T20:04:10;8.70;99.90
11666;DHT22;5889;51.350;6.708;2023-04-06T20:06:37;8.60;99.90
11666;DHT22;5889;51.350;6.708;2023-04-06T20:09:06;8.60;99.90
11666;DHT22;5889;51.350;6.708;2023-04-06T20:11:33;8.60;99.90
11666;DHT22;5889;51.350;6.708;2023-04-06T20:14:01;8.60;99.90
11666;DHT22;5889;51.350;6.708;2023-04-06T20:16:28;8.60;99.90
11666;DHT22;5889;51.350;6.708;2023-04-06T20:18:55;8.60;99.90
11666;DHT22;5889;51.350;6.708;2023-04-06T20:21:22;8.60;99.90
11666;DHT22;5889;51.350;6.708;2023-04-06T20:23:49;8.60;99.90
11666;DHT22;5889;51.350;6.708;2023-04-06T20:26:17;8.50;99.90
11666;DHT22;5889;51.350;6.708;2023-04-06T20:28:44;8.50;99.90
11666;DHT22;5889;51.350;6.708;2023-04-06T20:31:11;8.50;99.90
11666;DHT22;5889;51.350;6.708;2023-04-06T20:33:38;8.50;99.90
11666;DHT22;5889;51.350;6.708;2023-04-06T20:36:06;8.50;99.90
11666;DHT22;5889;51.350;6.708;2023-04-06T20:38:33;8.50;99.90
11666;DHT22;5889;51.350;6.708;2023-04-06T20:41:00;8.50;99.90